In Rescue
 
Open Full Screen Window  High Contrast Mode
Wind Gusting 00 knots
11
October 25, 2021 3:01 PM EDT
Present Weather: Light Drizzle
Weather Information
Wind Direction
  040 °
Wind Speed
  11 kt (13 mph)
Wind Gust
  00 kt (0 mph)
Altimeter
29.83 in
Visibility
10 SM
Temperature
09° C
48° F
Dewpoint
08° C
46° F
Humidity
94%
Sky Condition
Overcast @ 5,000 ft
VFR

METAR KHYX 251901Z AUTO 04011KT 10SM -DZ OVC050 09/08 A2983 RMK AO2 T00860078

FAA Disclaimer: The data displayed is for advisory purposes only and is not to be used for flight planning or operations.